createdAt,value
2018-01-20T00:01:52.752Z,5.92
2018-01-20T00:04:21.060Z,3.42
2018-01-20T00:06:49.345Z,4.48
2018-01-20T00:09:44.296Z,4.23
2018-01-20T00:12:12.590Z,6.45
2018-01-20T00:14:40.896Z,4.05
2018-01-20T00:17:14.804Z,3.45
2018-01-20T00:19:43.115Z,3.75
2018-01-20T00:22:12.114Z,4.67
2018-01-20T00:24:46.140Z,8.87
2018-01-20T00:27:14.427Z,3.43
2018-01-20T00:29:42.716Z,3.83
2018-01-20T00:32:11.018Z,5.57
2018-01-20T00:34:39.307Z,3.43
2018-01-20T00:37:07.620Z,4.28
2018-01-20T00:39:35.903Z,3.78
2018-01-20T00:42:04.203Z,4.33
2018-01-20T00:44:32.484Z,2.70
2018-01-20T00:47:00.797Z,3.75
2018-01-20T00:49:29.087Z,2.90
2018-01-20T00:51:57.395Z,3.28
2018-01-20T00:54:25.676Z,6.03
2018-01-20T00:56:53.980Z,3.27
2018-01-20T00:59:22.276Z,4.75
2018-01-20T01:01:50.586Z,2.90
2018-01-20T01:04:18.872Z,3.00
2018-01-20T01:06:47.185Z,2.78
2018-01-20T01:09:15.477Z,3.02
2018-01-20T01:11:43.784Z,5.28
2018-01-20T01:14:12.067Z,3.42
2018-01-20T01:16:40.377Z,5.28
2018-01-20T01:19:08.655Z,3.53
2018-01-20T01:21:36.991Z,3.15
2018-01-20T01:24:05.263Z,3.18
2018-01-20T01:26:33.573Z,3.00
2018-01-20T01:29:01.855Z,3.52
2018-01-20T01:31:30.160Z,4.60
2018-01-20T01:33:58.447Z,3.13
2018-01-20T01:36:26.748Z,6.50
2018-01-20T01:38:55.032Z,3.57
2018-01-20T01:41:23.340Z,7.87
2018-01-20T01:43:50.863Z,7.93
2018-01-20T01:46:19.169Z,6.25
2018-01-20T01:48:47.456Z,5.65
2018-01-20T01:51:15.760Z,6.48
2018-01-20T01:53:44.039Z,5.92
2018-01-20T01:56:12.349Z,5.65
2018-01-20T01:58:40.639Z,5.25
2018-01-20T02:01:08.923Z,4.33
2018-01-20T02:03:37.227Z,4.40
2018-01-20T02:06:04.739Z,7.58
2018-01-20T02:08:33.047Z,9.05
2018-01-20T02:11:01.335Z,4.43
2018-01-20T02:13:29.655Z,6.05
2018-01-20T02:15:57.941Z,6.52
2018-01-20T02:18:26.252Z,4.55
2018-01-20T02:20:54.544Z,6.07
2018-01-20T02:23:22.848Z,5.62
2018-01-20T02:25:51.136Z,5.00
2018-01-20T02:28:19.441Z,6.93
2018-01-20T02:30:47.732Z,5.03
2018-01-20T02:33:16.036Z,3.70
2018-01-20T02:35:44.323Z,4.28
2018-01-20T02:38:12.632Z,6.35
2018-01-20T02:40:40.923Z,3.93
2018-01-20T02:43:09.237Z,5.67
2018-01-20T02:45:37.523Z,4.50
2018-01-20T02:48:05.837Z,7.55
2018-01-20T02:50:34.125Z,4.57
2018-01-20T02:53:02.433Z,3.68
2018-01-20T02:55:30.721Z,3.52
2018-01-20T02:57:59.038Z,6.48
2018-01-20T03:00:27.328Z,12.20
2018-01-20T03:02:55.636Z,4.62
2018-01-20T03:05:23.923Z,3.72
2018-01-20T03:07:52.225Z,7.12
2018-01-20T03:10:20.508Z,4.92
2018-01-20T03:12:49.096Z,3.97
2018-01-20T03:15:17.387Z,5.43
2018-01-20T03:17:45.694Z,5.42
2018-01-20T03:20:13.988Z,4.23
2018-01-20T03:22:42.300Z,7.03
2018-01-20T03:25:10.593Z,7.67
2018-01-20T03:27:38.904Z,5.23
2018-01-20T03:30:07.192Z,4.25
2018-01-20T03:32:35.496Z,7.03
2018-01-20T03:35:03.783Z,6.18
2018-01-20T03:37:32.095Z,6.32
2018-01-20T03:40:00.375Z,4.00
2018-01-20T03:42:28.659Z,5.10
2018-01-20T03:44:56.969Z,6.37
2018-01-20T03:47:25.255Z,7.30
2018-01-20T03:49:53.560Z,5.03
2018-01-20T03:52:21.845Z,6.25
2018-01-20T03:54:50.155Z,7.87
2018-01-20T03:57:18.444Z,6.92
2018-01-20T03:59:46.793Z,4.90
2018-01-20T04:02:15.056Z,7.53
2018-01-20T04:04:43.367Z,9.75
2018-01-20T04:07:11.648Z,5.13
2018-01-20T04:09:39.960Z,5.33
2018-01-20T04:12:08.244Z,3.78
2018-01-20T04:14:36.552Z,3.72
2018-01-20T04:17:04.835Z,4.62
2018-01-20T04:19:33.143Z,5.98
2018-01-20T04:22:01.439Z,9.43
2018-01-20T04:24:28.975Z,5.02
2018-01-20T04:26:57.266Z,5.72
2018-01-20T04:29:25.567Z,6.40
2018-01-20T04:31:53.856Z,7.40
2018-01-20T04:34:22.163Z,3.52
2018-01-20T04:36:50.448Z,5.05
2018-01-20T04:39:18.752Z,4.92
2018-01-20T04:41:47.040Z,6.50
2018-01-20T04:44:15.355Z,5.45
2018-01-20T04:46:42.871Z,5.05
2018-01-20T04:49:11.179Z,5.40
2018-01-20T04:51:39.496Z,4.57
2018-01-20T04:54:07.796Z,5.55
2018-01-20T04:56:36.083Z,5.50
2018-01-20T04:59:04.388Z,6.42
2018-01-20T05:01:32.673Z,5.47
2018-01-20T05:04:00.984Z,8.43
2018-01-20T05:06:29.271Z,7.25
2018-01-20T05:08:57.581Z,7.38
2018-01-20T05:11:25.874Z,5.20
2018-01-20T05:13:54.180Z,5.37
2018-01-20T05:16:22.464Z,7.68
2018-01-20T05:18:50.776Z,7.78
2018-01-20T05:21:19.060Z,6.62
2018-01-20T05:23:47.349Z,8.90
2018-01-20T05:26:15.659Z,12.50
2018-01-20T05:28:43.952Z,6.03
2018-01-20T05:31:12.252Z,7.57
2018-01-20T05:33:40.540Z,10.37
2018-01-20T05:36:08.856Z,5.02
2018-01-20T05:38:37.150Z,6.40
2018-01-20T05:41:05.455Z,4.57
2018-01-20T05:43:33.745Z,6.52
2018-01-20T05:46:02.048Z,7.08
2018-01-20T05:48:30.332Z,6.90
2018-01-20T05:50:58.639Z,5.05
2018-01-20T05:53:26.920Z,9.23
2018-01-20T05:55:55.215Z,5.92
2018-01-20T05:58:23.495Z,6.98
2018-01-20T06:00:51.796Z,5.33
2018-01-20T06:03:20.081Z,8.60
2018-01-20T06:05:48.388Z,12.57
2018-01-20T06:08:16.672Z,7.63
2018-01-20T06:10:44.989Z,7.97
2018-01-20T06:13:12.501Z,5.80
2018-01-20T06:15:40.905Z,9.62
2018-01-20T06:18:09.192Z,5.67
2018-01-20T06:20:37.505Z,5.60
2018-01-20T06:23:05.792Z,7.08
2018-01-20T06:25:34.101Z,7.82
2018-01-20T06:28:01.621Z,6.27
2018-01-20T06:30:29.928Z,6.73
2018-01-20T06:32:58.215Z,6.47
2018-01-20T06:35:26.516Z,9.03
2018-01-20T06:37:54.799Z,8.48
2018-01-20T06:40:23.128Z,5.95
2018-01-20T06:42:51.452Z,11.42
2018-01-20T06:45:19.769Z,7.00
2018-01-20T06:47:48.056Z,7.62
2018-01-20T06:50:16.364Z,7.20
2018-01-20T06:52:44.648Z,8.48
2018-01-20T06:55:12.952Z,7.85
2018-01-20T06:57:41.240Z,10.50
2018-01-20T07:00:09.552Z,12.02
2018-01-20T07:02:37.840Z,6.47
2018-01-20T07:05:18.392Z,5.62
2018-01-20T07:07:46.688Z,9.47
2018-01-20T07:10:15.008Z,7.78
2018-01-20T07:12:43.304Z,5.88
2018-01-20T07:15:11.600Z,20.18
2018-01-20T07:17:39.903Z,10.13
2018-01-20T07:20:08.189Z,10.95
2018-01-20T07:22:36.488Z,9.55
2018-01-20T07:25:04.776Z,14.47
2018-01-20T07:27:33.090Z,8.40
2018-01-20T07:30:01.381Z,7.00
2018-01-20T07:32:29.691Z,12.83
2018-01-20T07:34:57.980Z,10.23
2018-01-20T07:37:26.296Z,33.88
2018-01-20T07:40:00.187Z,9.63
2018-01-20T07:42:27.737Z,24.00
2018-01-20T07:44:56.024Z,17.55
2018-01-20T07:47:24.339Z,33.15
2018-01-20T07:49:52.636Z,95.02
2018-01-20T07:52:20.944Z,26.83
2018-01-20T07:54:49.240Z,20.43
2018-01-20T07:57:17.559Z,12.75
2018-01-20T07:59:45.852Z,15.05
2018-01-20T08:02:14.163Z,8.98
2018-01-20T08:04:42.448Z,8.78
2018-01-20T08:07:10.750Z,7.77
2018-01-20T08:09:39.038Z,8.10
2018-01-20T08:12:07.348Z,6.90
2018-01-20T08:14:35.637Z,11.57
2018-01-20T08:17:03.944Z,11.43
2018-01-20T08:19:32.232Z,12.03
2018-01-20T08:22:00.536Z,9.75
2018-01-20T08:24:28.833Z,16.77
2018-01-20T08:26:57.148Z,19.25
2018-01-20T08:29:25.451Z,33.00
2018-01-20T08:31:53.756Z,10.63
2018-01-20T08:34:22.050Z,16.57
2018-01-20T08:36:50.367Z,11.37
2018-01-20T08:39:18.648Z,8.00
2018-01-20T08:41:46.183Z,9.95
2018-01-20T08:44:14.464Z,10.23
2018-01-20T08:46:42.771Z,8.47
2018-01-20T08:49:11.056Z,8.20
2018-01-20T08:51:39.368Z,10.48
2018-01-20T08:54:07.656Z,7.85
2018-01-20T08:56:35.964Z,11.43
2018-01-20T08:59:04.276Z,58.83
2018-01-20T09:01:32.569Z,119.80
2018-01-20T09:04:00.884Z,10.42
2018-01-20T09:06:29.177Z,45.27
2018-01-20T09:08:57.492Z,120.98
2018-01-20T09:11:25.789Z,34.05
2018-01-20T09:13:54.097Z,13.10
2018-01-20T09:16:22.383Z,16.47
2018-01-20T09:18:50.692Z,12.57
2018-01-20T09:21:18.981Z,12.78
2018-01-20T09:23:47.284Z,9.52
2018-01-20T09:26:15.580Z,12.62
2018-01-20T09:28:43.894Z,8.13
2018-01-20T09:31:12.237Z,10.23
2018-01-20T09:33:40.512Z,6.60
2018-01-20T09:36:08.809Z,10.22
2018-01-20T09:38:37.119Z,9.45
2018-01-20T09:41:05.408Z,10.73
2018-01-20T09:43:33.708Z,5.48
2018-01-20T09:46:02.001Z,6.87
2018-01-20T09:48:30.308Z,6.18
2018-01-20T09:50:58.600Z,13.95
2018-01-20T09:53:26.912Z,24.07
2018-01-20T09:55:55.204Z,7.58
2018-01-20T09:58:23.515Z,6.63
2018-01-20T10:00:51.801Z,4.87
2018-01-20T10:03:20.104Z,4.13
2018-01-20T10:05:47.620Z,11.97
2018-01-20T10:08:15.932Z,3.70
2018-01-20T10:10:44.220Z,4.58
2018-01-20T10:13:12.536Z,5.82
2018-01-20T10:15:40.815Z,10.98
2018-01-20T10:18:09.115Z,3.47
2018-01-20T10:20:37.396Z,3.62
2018-01-20T10:23:05.703Z,4.13
2018-01-20T10:25:33.992Z,3.38
2018-01-20T10:28:02.303Z,3.90
2018-01-20T10:30:30.592Z,9.42
2018-01-20T10:32:58.907Z,3.70
2018-01-20T10:35:27.200Z,33.70
2018-01-20T10:37:55.517Z,164.52
2018-01-20T10:40:23.797Z,3.95
2018-01-20T10:42:52.080Z,4.78
2018-01-20T10:45:20.385Z,5.47
2018-01-20T10:47:48.684Z,61.68
2018-01-20T10:50:16.987Z,10.25
2018-01-20T10:52:45.273Z,4.50
2018-01-20T10:55:12.807Z,6.08
2018-01-20T10:57:41.096Z,6.28
2018-01-20T11:00:09.396Z,3.55
2018-01-20T11:02:37.684Z,8.67
2018-01-20T11:05:06.000Z,3.10
2018-01-20T11:07:34.291Z,60.75
2018-01-20T11:10:02.605Z,5.28
2018-01-20T11:12:30.888Z,3.97
2018-01-20T11:14:59.217Z,4.30
2018-01-20T11:17:27.500Z,3.95
2018-01-20T11:19:55.812Z,4.35
2018-01-20T11:22:24.093Z,3.58
2018-01-20T11:24:52.401Z,4.92
2018-01-20T11:27:20.685Z,4.85
2018-01-20T11:29:48.995Z,28.83
2018-01-20T11:32:17.288Z,22.57
2018-01-20T11:34:45.621Z,29.00
2018-01-20T11:37:13.904Z,11.58
2018-01-20T11:39:42.208Z,6.73
2018-01-20T11:42:10.488Z,9.95
2018-01-20T11:44:38.791Z,7.13
2018-01-20T11:47:07.080Z,7.60
2018-01-20T11:49:35.384Z,4.53
2018-01-20T11:52:03.667Z,4.53
2018-01-20T11:54:32.033Z,4.60
2018-01-20T11:57:00.280Z,6.73
2018-01-20T11:59:28.598Z,17.85
2018-01-20T12:01:56.892Z,23.48
2018-01-20T12:04:25.195Z,14.97
2018-01-20T12:06:53.479Z,17.03
2018-01-20T12:09:21.787Z,5.80
2018-01-20T12:11:50.067Z,4.57
2018-01-20T12:14:18.375Z,4.85
2018-01-20T12:16:46.656Z,4.63
2018-01-20T12:19:14.973Z,7.28
2018-01-20T12:21:43.263Z,9.12
2018-01-20T12:24:11.561Z,3.80
2018-01-20T12:26:39.872Z,5.25
2018-01-20T12:29:08.161Z,4.17
2018-01-20T12:31:36.492Z,4.60
2018-01-20T12:34:04.783Z,3.87
2018-01-20T12:36:33.092Z,5.92
2018-01-20T12:39:01.384Z,5.68
2018-01-20T12:41:29.701Z,6.40
2018-01-20T12:43:58.000Z,13.03
2018-01-20T12:46:25.530Z,6.45
2018-01-20T12:48:53.815Z,5.63
2018-01-20T12:51:22.119Z,3.25
2018-01-20T12:53:50.407Z,5.10
2018-01-20T12:56:18.715Z,2.67
2018-01-20T12:58:46.997Z,3.63
2018-01-20T13:01:15.305Z,36.97
2018-01-20T13:03:43.600Z,6.70
2018-01-20T13:06:11.916Z,3.35
2018-01-20T13:08:40.205Z,3.27
2018-01-20T13:11:08.516Z,5.10
2018-01-20T13:13:36.808Z,15.45
2018-01-20T13:16:05.120Z,5.18
2018-01-20T13:18:33.404Z,12.65
2018-01-20T13:21:01.720Z,6.27
2018-01-20T13:23:30.006Z,4.83
2018-01-20T13:25:58.311Z,6.68
2018-01-20T13:28:26.595Z,7.47
2018-01-20T13:30:54.905Z,6.83
2018-01-20T13:33:23.191Z,7.53
2018-01-20T13:35:51.508Z,10.65
2018-01-20T13:38:19.786Z,7.83
2018-01-20T13:40:48.100Z,8.05
2018-01-20T13:43:16.394Z,9.78
2018-01-20T13:45:44.707Z,140.53
2018-01-20T13:48:13.000Z,164.17
2018-01-20T13:50:41.320Z,64.05
2018-01-20T13:53:09.609Z,27.47
2018-01-20T13:55:37.936Z,37.40
2018-01-20T13:58:06.236Z,47.20
2018-01-20T14:00:34.535Z,38.18
2018-01-20T14:03:02.844Z,26.62
2018-01-20T14:05:31.132Z,12.75
2018-01-20T14:07:59.451Z,13.03
2018-01-20T14:10:27.737Z,12.32
2018-01-20T14:12:56.062Z,12.27
2018-01-20T14:15:24.344Z,9.47
2018-01-20T14:17:52.655Z,10.77
2018-01-20T14:20:20.952Z,8.68
2018-01-20T14:22:49.260Z,8.92
2018-01-20T14:25:17.560Z,10.23
2018-01-20T14:27:45.882Z,11.10
2018-01-20T14:30:14.187Z,24.45
2018-01-20T14:32:42.501Z,9.82
2018-01-20T14:35:10.788Z,8.33
2018-01-20T14:37:39.113Z,12.18
2018-01-20T14:40:07.404Z,9.92
2018-01-20T14:42:35.714Z,9.72
2018-01-20T14:45:04.012Z,10.25
2018-01-20T14:47:32.328Z,21.70
2018-01-20T14:50:00.620Z,18.43
2018-01-20T14:52:28.937Z,11.65
2018-01-20T14:54:57.237Z,11.37
2018-01-20T14:57:25.565Z,13.13
2018-01-20T14:59:53.859Z,15.43
2018-01-20T15:02:22.180Z,15.22
2018-01-20T15:04:50.476Z,18.57
2018-01-20T15:07:18.796Z,12.32
2018-01-20T15:09:47.092Z,14.55
2018-01-20T15:12:15.404Z,13.48
2018-01-20T15:14:42.942Z,57.93
2018-01-20T15:17:11.270Z,74.43
2018-01-20T15:19:39.576Z,56.03
2018-01-20T15:22:07.919Z,45.20
2018-01-20T15:24:36.236Z,79.23
2018-01-20T15:27:04.560Z,28.95
2018-01-20T15:29:32.866Z,22.12
2018-01-20T15:32:01.185Z,16.03
2018-01-20T15:34:29.483Z,16.88
2018-01-20T15:36:57.804Z,24.98
2018-01-20T15:39:26.092Z,33.93
2018-01-20T15:41:54.384Z,56.37
2018-01-20T15:44:22.704Z,32.35
2018-01-20T15:46:51.008Z,26.17
2018-01-20T15:49:19.326Z,32.70
2018-01-20T15:51:47.615Z,38.35
2018-01-20T15:54:15.924Z,31.77
2018-01-20T15:56:44.217Z,33.95
2018-01-20T15:59:12.528Z,44.80
2018-01-20T16:01:40.820Z,33.47
2018-01-20T16:04:09.131Z,31.82
2018-01-20T16:06:37.429Z,67.37
2018-01-20T16:09:05.740Z,38.00
2018-01-20T16:11:34.031Z,39.80
2018-01-20T16:14:02.348Z,74.92
2018-01-20T16:16:30.640Z,71.83
2018-01-20T16:18:58.952Z,47.68
2018-01-20T16:21:27.243Z,44.62
2018-01-20T16:23:55.552Z,30.98
2018-01-20T16:26:23.840Z,29.93
2018-01-20T16:28:52.153Z,34.48
2018-01-20T16:31:20.450Z,46.12
2018-01-20T16:33:48.770Z,34.23
2018-01-20T16:36:17.060Z,32.40
2018-01-20T16:38:45.368Z,34.90
2018-01-20T16:41:12.901Z,34.07
2018-01-20T16:43:41.212Z,52.90
2018-01-20T16:46:09.504Z,43.67
2018-01-20T16:48:37.815Z,43.18
2018-01-20T16:51:06.113Z,35.97
2018-01-20T16:53:34.421Z,41.50
2018-01-20T16:56:02.716Z,39.02
2018-01-20T16:58:31.031Z,35.65
2018-01-20T17:00:59.319Z,41.65
2018-01-20T17:03:26.868Z,43.57
2018-01-20T17:05:55.160Z,48.02
2018-01-20T17:08:24.426Z,37.32
2018-01-20T17:10:52.725Z,44.42
2018-01-20T17:13:21.081Z,47.48
2018-01-20T17:15:49.372Z,59.48
2018-01-20T17:18:17.715Z,54.92
2018-01-20T17:20:46.000Z,37.83
2018-01-20T17:23:14.314Z,38.03
2018-01-20T17:25:42.603Z,35.10
2018-01-20T17:28:10.896Z,49.87
2018-01-20T17:30:39.208Z,45.77
2018-01-20T17:33:07.498Z,47.85
2018-01-20T17:35:35.808Z,39.38
2018-01-20T17:38:04.105Z,49.87
2018-01-20T17:40:32.417Z,29.55
2018-01-20T17:42:59.944Z,26.52
2018-01-20T17:45:28.260Z,45.92
2018-01-20T17:47:56.548Z,30.88
2018-01-20T17:50:24.881Z,13.25
2018-01-20T17:52:53.177Z,35.37
2018-01-20T17:55:21.493Z,30.32
2018-01-20T17:57:49.781Z,27.08
2018-01-20T18:00:18.093Z,24.15
2018-01-20T18:02:46.404Z,21.65
2018-01-20T18:05:14.717Z,14.53
2018-01-20T18:07:43.049Z,11.08
2018-01-20T18:10:11.344Z,8.00
2018-01-20T18:12:39.648Z,13.28
2018-01-20T18:15:07.968Z,15.22
2018-01-20T18:17:36.276Z,19.33
2018-01-20T18:20:04.646Z,19.40
2018-01-20T18:22:32.984Z,19.65
2018-01-20T18:25:01.298Z,23.42
2018-01-20T18:27:29.600Z,24.48
2018-01-20T18:29:58.005Z,27.17
2018-01-20T18:32:26.312Z,18.60
2018-01-20T18:34:54.654Z,18.60
2018-01-20T18:37:22.996Z,14.93
2018-01-20T18:39:51.307Z,14.48
2018-01-20T18:42:19.597Z,22.65
2018-01-20T18:44:47.912Z,15.83
2018-01-20T18:47:16.199Z,21.78
2018-01-20T18:49:44.547Z,18.35
2018-01-20T18:52:12.837Z,23.65
2018-01-20T18:54:41.148Z,42.77
2018-01-20T18:57:09.440Z,32.67
2018-01-20T18:59:37.757Z,24.42
2018-01-20T19:02:06.060Z,32.63
2018-01-20T19:04:34.368Z,53.80
2018-01-20T19:07:02.661Z,61.20
2018-01-20T19:09:30.975Z,110.27
2018-01-20T19:11:59.271Z,102.57
2018-01-20T19:14:27.572Z,140.40
2018-01-20T19:16:55.893Z,56.08
2018-01-20T19:19:24.184Z,47.05
2018-01-20T19:21:52.497Z,52.28
2018-01-20T19:24:20.792Z,37.65
2018-01-20T19:26:49.112Z,37.75
2018-01-20T19:29:17.408Z,32.73
2018-01-20T19:31:45.716Z,28.05
2018-01-20T19:34:14.007Z,23.42
2018-01-20T19:36:42.316Z,40.07
2018-01-20T19:39:10.610Z,49.08
2018-01-20T19:41:38.927Z,35.85
2018-01-20T19:44:06.452Z,44.18
2018-01-20T19:46:34.765Z,51.10
2018-01-20T19:49:03.060Z,41.75
2018-01-20T19:51:31.367Z,52.30
2018-01-20T19:53:59.672Z,55.65
2018-01-20T19:56:27.992Z,40.32
2018-01-20T19:58:56.284Z,40.93
2018-01-20T20:01:24.592Z,46.93
2018-01-20T20:03:52.880Z,35.68
2018-01-20T20:06:21.197Z,36.90
2018-01-20T20:08:49.488Z,36.22
2018-01-20T20:11:17.805Z,29.05
2018-01-20T20:13:46.092Z,25.33
2018-01-20T20:16:14.403Z,23.67
2018-01-20T20:18:42.697Z,24.68
2018-01-20T20:21:11.020Z,30.27
2018-01-20T20:23:39.305Z,35.83
2018-01-20T20:26:07.644Z,34.47
2018-01-20T20:28:35.939Z,34.60
2018-01-20T20:31:04.261Z,23.55
2018-01-20T20:33:32.548Z,29.00
2018-01-20T20:36:00.878Z,26.37
2018-01-20T20:38:29.173Z,24.08
2018-01-20T20:40:57.495Z,42.22
2018-01-20T20:43:25.808Z,32.27
2018-01-20T20:45:54.116Z,30.72
2018-01-20T20:48:22.421Z,32.05
2018-01-20T20:50:50.739Z,35.28
2018-01-20T20:53:19.101Z,35.45
2018-01-20T20:55:47.400Z,39.57
2018-01-20T20:58:15.716Z,32.35
2018-01-20T21:00:44.012Z,29.60
2018-01-20T21:03:12.332Z,28.60
2018-01-20T21:05:40.624Z,40.45
2018-01-20T21:08:09.012Z,31.38
2018-01-20T21:10:37.304Z,36.97
2018-01-20T21:13:05.624Z,52.78
2018-01-20T21:15:33.915Z,33.77
2018-01-20T21:18:02.246Z,40.02
2018-01-20T21:20:30.539Z,40.82
2018-01-20T21:22:58.857Z,35.95
2018-01-20T21:25:27.139Z,32.70
2018-01-20T21:27:55.456Z,34.18
2018-01-20T21:30:23.749Z,26.33
2018-01-20T21:32:52.060Z,33.07
2018-01-20T21:35:20.356Z,19.80
2018-01-20T21:37:48.677Z,26.28
2018-01-20T21:40:16.967Z,32.85
2018-01-20T21:42:45.288Z,52.57
2018-01-20T21:45:13.580Z,40.12
2018-01-20T21:47:41.891Z,28.87
2018-01-20T21:50:10.184Z,25.87
2018-01-20T21:52:38.497Z,41.65
2018-01-20T21:55:06.788Z,20.15
2018-01-20T21:57:35.092Z,9.65
2018-01-20T22:00:03.376Z,13.38
2018-01-20T22:02:31.680Z,8.78
2018-01-20T22:04:59.971Z,10.65
2018-01-20T22:07:28.275Z,5.15
2018-01-20T22:09:56.556Z,3.62
2018-01-20T22:12:24.856Z,7.27
2018-01-20T22:14:53.140Z,4.02
2018-01-20T22:17:21.452Z,11.93
2018-01-20T22:19:49.740Z,17.40
2018-01-20T22:22:18.051Z,7.08
2018-01-20T22:24:46.355Z,6.07
2018-01-20T22:27:14.672Z,5.05
2018-01-20T22:29:42.956Z,9.03
2018-01-20T22:32:11.272Z,29.33
2018-01-20T22:34:39.565Z,9.92
2018-01-20T22:37:07.851Z,7.40
2018-01-20T22:39:36.156Z,5.08
2018-01-20T22:42:04.440Z,5.12
2018-01-20T22:44:32.744Z,7.52
2018-01-20T22:47:01.028Z,6.35
2018-01-20T22:49:29.335Z,11.27
2018-01-20T22:51:57.624Z,11.33
2018-01-20T22:54:25.927Z,8.10
2018-01-20T22:56:54.219Z,7.02
2018-01-20T22:59:22.524Z,8.58
2018-01-20T23:01:50.816Z,10.97
2018-01-20T23:04:19.125Z,8.60
2018-01-20T23:06:47.412Z,10.52
2018-01-20T23:09:15.723Z,9.10
2018-01-20T23:11:44.008Z,12.08
2018-01-20T23:14:11.551Z,8.33
2018-01-20T23:16:39.836Z,10.03
2018-01-20T23:19:08.140Z,7.85
2018-01-20T23:21:36.427Z,7.57
2018-01-20T23:24:04.736Z,9.22
2018-01-20T23:26:33.016Z,7.48
2018-01-20T23:29:01.320Z,8.38
2018-01-20T23:31:29.599Z,8.93
2018-01-20T23:33:57.907Z,8.78
2018-01-20T23:36:26.192Z,7.17
2018-01-20T23:38:54.491Z,7.83
2018-01-20T23:41:22.777Z,7.67
2018-01-20T23:43:51.084Z,6.60
2018-01-20T23:46:19.376Z,8.37
2018-01-20T23:48:47.684Z,8.97
2018-01-20T23:51:15.968Z,6.53
2018-01-20T23:53:44.283Z,6.82
2018-01-20T23:56:12.571Z,7.12
2018-01-20T23:58:40.883Z,7.03
